sensor_id;sensor_type;location;lat;lon;timestamp;P1;durP1;ratioP1;P2;durP2;ratioP2
36575;SDS011;45700;50.930;5.168;2022-07-23T00:03:56;6.22;;;4.13;;
36575;SDS011;45700;50.930;5.168;2022-07-23T00:07:57;7.63;;;4.38;;
36575;SDS011;45700;50.930;5.168;2022-07-23T00:11:58;8.02;;;4.75;;
36575;SDS011;45700;50.930;5.168;2022-07-23T00:15:59;10.85;;;4.70;;
36575;SDS011;45700;50.930;5.168;2022-07-23T00:20:00;6.85;;;4.40;;
36575;SDS011;45700;50.930;5.168;2022-07-23T00:24:01;8.15;;;4.25;;
36575;SDS011;45700;50.930;5.168;2022-07-23T00:28:02;8.10;;;4.72;;
36575;SDS011;45700;50.930;5.168;2022-07-23T00:32:03;6.85;;;4.50;;
36575;SDS011;45700;50.930;5.168;2022-07-23T00:36:04;8.15;;;5.10;;
36575;SDS011;45700;50.930;5.168;2022-07-23T00:40:06;6.45;;;4.18;;
36575;SDS011;45700;50.930;5.168;2022-07-23T00:44:17;8.65;;;4.47;;
36575;SDS011;45700;50.930;5.168;2022-07-23T00:48:18;8.63;;;4.53;;
36575;SDS011;45700;50.930;5.168;2022-07-23T00:52:19;7.15;;;4.25;;
36575;SDS011;45700;50.930;5.168;2022-07-23T00:56:20;7.10;;;4.10;;
36575;SDS011;45700;50.930;5.168;2022-07-23T01:00:21;7.88;;;4.55;;
36575;SDS011;45700;50.930;5.168;2022-07-23T01:04:22;7.40;;;4.40;;
36575;SDS011;45700;50.930;5.168;2022-07-23T01:08:23;7.15;;;4.50;;
36575;SDS011;45700;50.930;5.168;2022-07-23T01:12:25;8.48;;;4.68;;
36575;SDS011;45700;50.930;5.168;2022-07-23T01:16:26;8.63;;;4.25;;
36575;SDS011;45700;50.930;5.168;2022-07-23T01:20:27;7.65;;;4.55;;
36575;SDS011;45700;50.930;5.168;2022-07-23T01:24:28;8.13;;;4.40;;
36575;SDS011;45700;50.930;5.168;2022-07-23T01:28:29;6.80;;;4.13;;
36575;SDS011;45700;50.930;5.168;2022-07-23T01:32:31;7.38;;;4.60;;
36575;SDS011;45700;50.930;5.168;2022-07-23T01:36:32;7.97;;;4.78;;
36575;SDS011;45700;50.930;5.168;2022-07-23T01:40:33;7.88;;;4.70;;
36575;SDS011;45700;50.930;5.168;2022-07-23T01:44:34;7.63;;;4.72;;
36575;SDS011;45700;50.930;5.168;2022-07-23T01:48:35;7.35;;;4.60;;
36575;SDS011;45700;50.930;5.168;2022-07-23T01:52:36;7.32;;;4.63;;
36575;SDS011;45700;50.930;5.168;2022-07-23T01:56:37;7.85;;;4.18;;
36575;SDS011;45700;50.930;5.168;2022-07-23T02:00:38;7.85;;;4.82;;
36575;SDS011;45700;50.930;5.168;2022-07-23T02:04:39;8.10;;;4.95;;
36575;SDS011;45700;50.930;5.168;2022-07-23T02:08:40;9.23;;;4.32;;
36575;SDS011;45700;50.930;5.168;2022-07-23T02:12:41;9.05;;;4.60;;
36575;SDS011;45700;50.930;5.168;2022-07-23T02:16:42;6.10;;;3.95;;
36575;SDS011;45700;50.930;5.168;2022-07-23T02:20:43;8.73;;;4.45;;
36575;SDS011;45700;50.930;5.168;2022-07-23T02:24:44;7.82;;;4.75;;
36575;SDS011;45700;50.930;5.168;2022-07-23T02:28:45;8.63;;;4.70;;
36575;SDS011;45700;50.930;5.168;2022-07-23T02:32:46;7.78;;;5.03;;
36575;SDS011;45700;50.930;5.168;2022-07-23T02:36:47;8.15;;;4.70;;
36575;SDS011;45700;50.930;5.168;2022-07-23T02:40:49;7.95;;;4.55;;
36575;SDS011;45700;50.930;5.168;2022-07-23T02:44:50;8.52;;;4.68;;
36575;SDS011;45700;50.930;5.168;2022-07-23T02:48:51;7.00;;;4.43;;
36575;SDS011;45700;50.930;5.168;2022-07-23T02:52:52;7.45;;;4.10;;
36575;SDS011;45700;50.930;5.168;2022-07-23T02:56:53;6.93;;;4.40;;
36575;SDS011;45700;50.930;5.168;2022-07-23T03:00:54;8.88;;;5.00;;
36575;SDS011;45700;50.930;5.168;2022-07-23T03:04:55;8.35;;;4.38;;
36575;SDS011;45700;50.930;5.168;2022-07-23T03:08:56;8.00;;;4.28;;
36575;SDS011;45700;50.930;5.168;2022-07-23T03:12:57;8.85;;;4.32;;
36575;SDS011;45700;50.930;5.168;2022-07-23T03:17:01;5.90;;;3.80;;
36575;SDS011;45700;50.930;5.168;2022-07-23T03:21:02;7.93;;;4.30;;
36575;SDS011;45700;50.930;5.168;2022-07-23T03:25:03;7.20;;;4.63;;
36575;SDS011;45700;50.930;5.168;2022-07-23T03:29:04;9.40;;;4.90;;
36575;SDS011;45700;50.930;5.168;2022-07-23T03:33:05;8.43;;;4.93;;
36575;SDS011;45700;50.930;5.168;2022-07-23T03:37:06;6.65;;;4.38;;
36575;SDS011;45700;50.930;5.168;2022-07-23T03:41:07;8.45;;;4.25;;
36575;SDS011;45700;50.930;5.168;2022-07-23T03:45:08;8.18;;;4.53;;
36575;SDS011;45700;50.930;5.168;2022-07-23T03:49:10;8.73;;;4.25;;
36575;SDS011;45700;50.930;5.168;2022-07-23T03:53:10;8.10;;;4.72;;
36575;SDS011;45700;50.930;5.168;2022-07-23T03:57:11;7.03;;;4.57;;
36575;SDS011;45700;50.930;5.168;2022-07-23T04:01:12;6.00;;;4.95;;
36575;SDS011;45700;50.930;5.168;2022-07-23T04:05:13;12.07;;;5.30;;
36575;SDS011;45700;50.930;5.168;2022-07-23T04:09:14;8.75;;;4.97;;
36575;SDS011;45700;50.930;5.168;2022-07-23T04:13:15;9.43;;;5.00;;
36575;SDS011;45700;50.930;5.168;2022-07-23T04:17:16;7.05;;;4.45;;
36575;SDS011;45700;50.930;5.168;2022-07-23T04:21:17;8.35;;;5.03;;
36575;SDS011;45700;50.930;5.168;2022-07-23T04:25:18;8.10;;;4.97;;
36575;SDS011;45700;50.930;5.168;2022-07-23T04:29:19;8.70;;;5.20;;
36575;SDS011;45700;50.930;5.168;2022-07-23T04:33:20;9.65;;;5.00;;
36575;SDS011;45700;50.930;5.168;2022-07-23T04:37:21;9.63;;;4.85;;
36575;SDS011;45700;50.930;5.168;2022-07-23T04:41:22;8.35;;;5.05;;
36575;SDS011;45700;50.930;5.168;2022-07-23T04:45:23;8.23;;;5.05;;
36575;SDS011;45700;50.930;5.168;2022-07-23T04:49:25;10.05;;;5.53;;
36575;SDS011;45700;50.930;5.168;2022-07-23T04:53:26;7.47;;;4.85;;
36575;SDS011;45700;50.930;5.168;2022-07-23T04:57:27;7.93;;;5.28;;
36575;SDS011;45700;50.930;5.168;2022-07-23T05:01:28;8.35;;;5.90;;
36575;SDS011;45700;50.930;5.168;2022-07-23T05:05:29;7.78;;;5.22;;
36575;SDS011;45700;50.930;5.168;2022-07-23T05:09:30;7.75;;;4.80;;
36575;SDS011;45700;50.930;5.168;2022-07-23T05:13:31;8.95;;;5.53;;
36575;SDS011;45700;50.930;5.168;2022-07-23T05:17:32;8.65;;;5.22;;
36575;SDS011;45700;50.930;5.168;2022-07-23T05:21:33;8.57;;;5.60;;
36575;SDS011;45700;50.930;5.168;2022-07-23T05:25:34;9.90;;;5.82;;
36575;SDS011;45700;50.930;5.168;2022-07-23T05:29:35;8.60;;;5.25;;
36575;SDS011;45700;50.930;5.168;2022-07-23T05:33:36;10.95;;;5.85;;
36575;SDS011;45700;50.930;5.168;2022-07-23T05:37:37;8.80;;;5.18;;
36575;SDS011;45700;50.930;5.168;2022-07-23T05:41:38;8.30;;;5.60;;
36575;SDS011;45700;50.930;5.168;2022-07-23T05:45:39;8.98;;;5.28;;
36575;SDS011;45700;50.930;5.168;2022-07-23T05:49:40;9.63;;;5.60;;
36575;SDS011;45700;50.930;5.168;2022-07-23T05:53:41;8.57;;;5.53;;
36575;SDS011;45700;50.930;5.168;2022-07-23T05:57:42;9.90;;;6.18;;
36575;SDS011;45700;50.930;5.168;2022-07-23T06:01:43;7.97;;;5.43;;
36575;SDS011;45700;50.930;5.168;2022-07-23T06:05:44;11.38;;;6.07;;
36575;SDS011;45700;50.930;5.168;2022-07-23T06:09:45;9.68;;;5.57;;
36575;SDS011;45700;50.930;5.168;2022-07-23T06:13:47;9.02;;;5.65;;
36575;SDS011;45700;50.930;5.168;2022-07-23T06:17:48;8.18;;;5.55;;
36575;SDS011;45700;50.930;5.168;2022-07-23T06:21:49;9.93;;;5.82;;
36575;SDS011;45700;50.930;5.168;2022-07-23T06:25:49;13.52;;;6.72;;
36575;SDS011;45700;50.930;5.168;2022-07-23T06:29:50;10.52;;;6.38;;
36575;SDS011;45700;50.930;5.168;2022-07-23T06:33:51;8.60;;;6.00;;
36575;SDS011;45700;50.930;5.168;2022-07-23T06:37:52;9.55;;;6.07;;
36575;SDS011;45700;50.930;5.168;2022-07-23T06:41:53;10.05;;;6.40;;
36575;SDS011;45700;50.930;5.168;2022-07-23T06:45:54;10.43;;;6.30;;
36575;SDS011;45700;50.930;5.168;2022-07-23T06:49:55;12.02;;;6.97;;
36575;SDS011;45700;50.930;5.168;2022-07-23T06:53:56;9.50;;;6.43;;
36575;SDS011;45700;50.930;5.168;2022-07-23T06:57:58;9.23;;;6.22;;
36575;SDS011;45700;50.930;5.168;2022-07-23T07:01:59;10.43;;;6.25;;
36575;SDS011;45700;50.930;5.168;2022-07-23T07:06:00;13.63;;;7.53;;
36575;SDS011;45700;50.930;5.168;2022-07-23T07:10:02;9.85;;;6.70;;
36575;SDS011;45700;50.930;5.168;2022-07-23T07:14:03;12.57;;;6.68;;
36575;SDS011;45700;50.930;5.168;2022-07-23T07:18:04;11.13;;;6.97;;
36575;SDS011;45700;50.930;5.168;2022-07-23T07:22:05;12.55;;;6.80;;
36575;SDS011;45700;50.930;5.168;2022-07-23T07:26:06;9.30;;;6.80;;
36575;SDS011;45700;50.930;5.168;2022-07-23T07:30:08;10.55;;;6.97;;
36575;SDS011;45700;50.930;5.168;2022-07-23T07:34:09;9.70;;;6.55;;
36575;SDS011;45700;50.930;5.168;2022-07-23T07:38:10;13.18;;;6.97;;
36575;SDS011;45700;50.930;5.168;2022-07-23T07:42:11;9.93;;;7.00;;
36575;SDS011;45700;50.930;5.168;2022-07-23T07:46:12;12.13;;;6.97;;
36575;SDS011;45700;50.930;5.168;2022-07-23T07:50:13;12.15;;;7.15;;
36575;SDS011;45700;50.930;5.168;2022-07-23T07:54:14;9.50;;;6.55;;
36575;SDS011;45700;50.930;5.168;2022-07-23T07:58:15;11.50;;;7.13;;
36575;SDS011;45700;50.930;5.168;2022-07-23T08:02:16;13.32;;;6.68;;
36575;SDS011;45700;50.930;5.168;2022-07-23T08:06:17;9.13;;;6.38;;
36575;SDS011;45700;50.930;5.168;2022-07-23T08:10:18;9.65;;;6.00;;
36575;SDS011;45700;50.930;5.168;2022-07-23T08:14:19;11.63;;;6.47;;
36575;SDS011;45700;50.930;5.168;2022-07-23T08:18:20;12.02;;;6.65;;
36575;SDS011;45700;50.930;5.168;2022-07-23T08:22:21;10.63;;;6.25;;
36575;SDS011;45700;50.930;5.168;2022-07-23T08:26:22;10.38;;;6.43;;
36575;SDS011;45700;50.930;5.168;2022-07-23T08:30:23;10.10;;;5.68;;
36575;SDS011;45700;50.930;5.168;2022-07-23T08:34:24;9.85;;;5.63;;
36575;SDS011;45700;50.930;5.168;2022-07-23T08:38:25;8.18;;;5.32;;
36575;SDS011;45700;50.930;5.168;2022-07-23T08:42:28;10.68;;;5.50;;
36575;SDS011;45700;50.930;5.168;2022-07-23T08:46:29;9.32;;;5.50;;
36575;SDS011;45700;50.930;5.168;2022-07-23T08:50:30;9.18;;;5.72;;
36575;SDS011;45700;50.930;5.168;2022-07-23T08:54:32;10.27;;;6.10;;
36575;SDS011;45700;50.930;5.168;2022-07-23T08:58:35;9.32;;;5.57;;
36575;SDS011;45700;50.930;5.168;2022-07-23T09:02:42;9.25;;;6.00;;
36575;SDS011;45700;50.930;5.168;2022-07-23T09:06:44;8.55;;;5.13;;
36575;SDS011;45700;50.930;5.168;2022-07-23T09:14:49;11.38;;;6.00;;
36575;SDS011;45700;50.930;5.168;2022-07-23T09:18:52;9.48;;;5.65;;
36575;SDS011;45700;50.930;5.168;2022-07-23T09:22:53;7.57;;;4.57;;
36575;SDS011;45700;50.930;5.168;2022-07-23T09:26:54;8.55;;;4.82;;
36575;SDS011;45700;50.930;5.168;2022-07-23T09:30:55;7.63;;;4.57;;
36575;SDS011;45700;50.930;5.168;2022-07-23T09:34:56;9.23;;;5.53;;
36575;SDS011;45700;50.930;5.168;2022-07-23T09:38:57;5.72;;;4.22;;
36575;SDS011;45700;50.930;5.168;2022-07-23T09:42:58;7.78;;;5.18;;
36575;SDS011;45700;50.930;5.168;2022-07-23T09:46:59;7.68;;;5.00;;
36575;SDS011;45700;50.930;5.168;2022-07-23T09:51:04;9.32;;;4.43;;
36575;SDS011;45700;50.930;5.168;2022-07-23T09:55:06;7.43;;;4.85;;
36575;SDS011;45700;50.930;5.168;2022-07-23T09:59:07;7.63;;;4.45;;
36575;SDS011;45700;50.930;5.168;2022-07-23T10:03:12;6.95;;;4.13;;
36575;SDS011;45700;50.930;5.168;2022-07-23T10:07:14;6.65;;;4.13;;
36575;SDS011;45700;50.930;5.168;2022-07-23T10:11:17;4.28;;;3.30;;
36575;SDS011;45700;50.930;5.168;2022-07-23T10:15:18;7.05;;;4.68;;
36575;SDS011;45700;50.930;5.168;2022-07-23T10:19:20;5.60;;;3.83;;
36575;SDS011;45700;50.930;5.168;2022-07-23T10:23:34;4.85;;;3.35;;
36575;SDS011;45700;50.930;5.168;2022-07-23T10:39:44;5.28;;;3.63;;
36575;SDS011;45700;50.930;5.168;2022-07-23T10:43:45;4.95;;;3.10;;
36575;SDS011;45700;50.930;5.168;2022-07-23T10:48:16;5.50;;;3.35;;
36575;SDS011;45700;50.930;5.168;2022-07-23T10:52:18;6.43;;;3.50;;
36575;SDS011;45700;50.930;5.168;2022-07-23T11:00:40;4.78;;;2.60;;
36575;SDS011;45700;50.930;5.168;2022-07-23T11:04:47;4.07;;;3.08;;
36575;SDS011;45700;50.930;5.168;2022-07-23T11:08:51;4.07;;;2.75;;
36575;SDS011;45700;50.930;5.168;2022-07-23T11:17:23;6.07;;;2.70;;
36575;SDS011;45700;50.930;5.168;2022-07-23T11:25:37;4.78;;;2.67;;
36575;SDS011;45700;50.930;5.168;2022-07-23T11:29:38;2.67;;;1.95;;
36575;SDS011;45700;50.930;5.168;2022-07-23T11:33:40;4.03;;;2.47;;
36575;SDS011;45700;50.930;5.168;2022-07-23T11:37:40;2.97;;;2.00;;
36575;SDS011;45700;50.930;5.168;2022-07-23T11:41:43;4.65;;;2.42;;
36575;SDS011;45700;50.930;5.168;2022-07-23T11:45:45;2.67;;;2.25;;
36575;SDS011;45700;50.930;5.168;2022-07-23T11:53:54;1.58;;;1.48;;
36575;SDS011;45700;50.930;5.168;2022-07-23T11:57:55;2.75;;;1.83;;
36575;SDS011;45700;50.930;5.168;2022-07-23T12:01:57;2.78;;;1.60;;
36575;SDS011;45700;50.930;5.168;2022-07-23T12:05:59;1.30;;;1.00;;
36575;SDS011;45700;50.930;5.168;2022-07-23T12:10:14;1.77;;;1.10;;
36575;SDS011;45700;50.930;5.168;2022-07-23T12:14:15;1.50;;;1.38;;
36575;SDS011;45700;50.930;5.168;2022-07-23T12:18:19;2.05;;;1.42;;
36575;SDS011;45700;50.930;5.168;2022-07-23T12:22:20;2.60;;;1.73;;
36575;SDS011;45700;50.930;5.168;2022-07-23T12:26:22;2.78;;;1.60;;
36575;SDS011;45700;50.930;5.168;2022-07-23T12:30:27;2.88;;;2.33;;
36575;SDS011;45700;50.930;5.168;2022-07-23T12:34:28;2.35;;;1.58;;
36575;SDS011;45700;50.930;5.168;2022-07-23T12:38:36;1.58;;;1.40;;
36575;SDS011;45700;50.930;5.168;2022-07-23T12:42:42;1.95;;;1.35;;
36575;SDS011;45700;50.930;5.168;2022-07-23T12:46:43;3.08;;;2.15;;
36575;SDS011;45700;50.930;5.168;2022-07-23T12:50:53;2.05;;;1.35;;
36575;SDS011;45700;50.930;5.168;2022-07-23T12:54:54;1.98;;;1.67;;
36575;SDS011;45700;50.930;5.168;2022-07-23T12:58:56;2.75;;;1.80;;
36575;SDS011;45700;50.930;5.168;2022-07-23T13:02:58;2.25;;;1.73;;
36575;SDS011;45700;50.930;5.168;2022-07-23T13:06:59;2.92;;;1.70;;
36575;SDS011;45700;50.930;5.168;2022-07-23T13:11:01;2.10;;;1.90;;
36575;SDS011;45700;50.930;5.168;2022-07-23T13:15:03;3.10;;;2.08;;
36575;SDS011;45700;50.930;5.168;2022-07-23T13:19:04;3.28;;;2.25;;
36575;SDS011;45700;50.930;5.168;2022-07-23T13:23:07;2.50;;;1.80;;
36575;SDS011;45700;50.930;5.168;2022-07-23T13:27:08;4.80;;;1.92;;
36575;SDS011;45700;50.930;5.168;2022-07-23T13:31:09;3.78;;;1.48;;
36575;SDS011;45700;50.930;5.168;2022-07-23T13:35:10;3.42;;;1.98;;
36575;SDS011;45700;50.930;5.168;2022-07-23T13:39:12;1.85;;;1.65;;
36575;SDS011;45700;50.930;5.168;2022-07-23T13:43:13;1.60;;;1.50;;
36575;SDS011;45700;50.930;5.168;2022-07-23T13:47:15;1.83;;;1.60;;
36575;SDS011;45700;50.930;5.168;2022-07-23T13:51:16;2.70;;;1.67;;
36575;SDS011;45700;50.930;5.168;2022-07-23T13:55:17;2.53;;;1.45;;
36575;SDS011;45700;50.930;5.168;2022-07-23T13:59:19;2.47;;;1.70;;
36575;SDS011;45700;50.930;5.168;2022-07-23T14:03:20;2.28;;;1.80;;
36575;SDS011;45700;50.930;5.168;2022-07-23T14:07:24;2.47;;;1.75;;
36575;SDS011;45700;50.930;5.168;2022-07-23T14:11:25;2.65;;;1.80;;
36575;SDS011;45700;50.930;5.168;2022-07-23T14:15:28;2.67;;;2.03;;
36575;SDS011;45700;50.930;5.168;2022-07-23T14:19:30;3.33;;;2.33;;
36575;SDS011;45700;50.930;5.168;2022-07-23T14:23:31;2.33;;;1.92;;
36575;SDS011;45700;50.930;5.168;2022-07-23T14:27:32;3.95;;;2.28;;
36575;SDS011;45700;50.930;5.168;2022-07-23T14:31:33;3.60;;;2.25;;
36575;SDS011;45700;50.930;5.168;2022-07-23T14:35:34;2.90;;;1.85;;
36575;SDS011;45700;50.930;5.168;2022-07-23T14:39:35;2.30;;;1.88;;
36575;SDS011;45700;50.930;5.168;2022-07-23T14:43:36;2.00;;;1.77;;
36575;SDS011;45700;50.930;5.168;2022-07-23T14:47:37;1.88;;;1.73;;
36575;SDS011;45700;50.930;5.168;2022-07-23T14:51:38;2.75;;;2.00;;
36575;SDS011;45700;50.930;5.168;2022-07-23T14:55:41;2.95;;;2.15;;
36575;SDS011;45700;50.930;5.168;2022-07-23T14:59:42;2.03;;;1.83;;
36575;SDS011;45700;50.930;5.168;2022-07-23T15:03:43;2.55;;;1.90;;
36575;SDS011;45700;50.930;5.168;2022-07-23T15:07:44;2.42;;;1.90;;
36575;SDS011;45700;50.930;5.168;2022-07-23T15:11:44;3.35;;;2.05;;
36575;SDS011;45700;50.930;5.168;2022-07-23T15:15:45;4.55;;;2.42;;
36575;SDS011;45700;50.930;5.168;2022-07-23T15:19:47;2.63;;;2.17;;
36575;SDS011;45700;50.930;5.168;2022-07-23T15:23:48;3.55;;;1.80;;
36575;SDS011;45700;50.930;5.168;2022-07-23T15:27:49;3.38;;;2.40;;
36575;SDS011;45700;50.930;5.168;2022-07-23T15:31:50;3.03;;;1.90;;
36575;SDS011;45700;50.930;5.168;2022-07-23T15:35:51;3.05;;;1.80;;
36575;SDS011;45700;50.930;5.168;2022-07-23T15:39:56;2.85;;;2.13;;
36575;SDS011;45700;50.930;5.168;2022-07-23T15:43:57;3.45;;;2.13;;
36575;SDS011;45700;50.930;5.168;2022-07-23T15:47:58;2.85;;;2.17;;
36575;SDS011;45700;50.930;5.168;2022-07-23T15:51:59;3.08;;;1.98;;
36575;SDS011;45700;50.930;5.168;2022-07-23T15:56:00;3.70;;;1.77;;
36575;SDS011;45700;50.930;5.168;2022-07-23T16:00:01;3.05;;;1.77;;
36575;SDS011;45700;50.930;5.168;2022-07-23T16:04:02;2.42;;;2.08;;
36575;SDS011;45700;50.930;5.168;2022-07-23T16:08:04;2.95;;;1.90;;
36575;SDS011;45700;50.930;5.168;2022-07-23T16:12:05;2.83;;;1.90;;
36575;SDS011;45700;50.930;5.168;2022-07-23T16:16:06;2.53;;;2.13;;
36575;SDS011;45700;50.930;5.168;2022-07-23T16:20:08;3.03;;;2.20;;
36575;SDS011;45700;50.930;5.168;2022-07-23T16:24:10;3.67;;;1.73;;
36575;SDS011;45700;50.930;5.168;2022-07-23T16:28:11;2.13;;;1.77;;
36575;SDS011;45700;50.930;5.168;2022-07-23T16:32:12;2.42;;;1.92;;
36575;SDS011;45700;50.930;5.168;2022-07-23T16:36:13;2.03;;;1.83;;
36575;SDS011;45700;50.930;5.168;2022-07-23T16:40:14;2.92;;;2.17;;
36575;SDS011;45700;50.930;5.168;2022-07-23T16:44:15;2.47;;;2.08;;
36575;SDS011;45700;50.930;5.168;2022-07-23T16:48:17;3.53;;;2.20;;
36575;SDS011;45700;50.930;5.168;2022-07-23T16:52:19;2.53;;;1.98;;
36575;SDS011;45700;50.930;5.168;2022-07-23T16:56:20;2.22;;;2.03;;
36575;SDS011;45700;50.930;5.168;2022-07-23T17:00:21;2.75;;;2.50;;
36575;SDS011;45700;50.930;5.168;2022-07-23T17:04:22;3.83;;;2.38;;
36575;SDS011;45700;50.930;5.168;2022-07-23T17:08:23;4.38;;;2.10;;
36575;SDS011;45700;50.930;5.168;2022-07-23T17:12:24;2.33;;;2.00;;
36575;SDS011;45700;50.930;5.168;2022-07-23T17:16:25;4.38;;;2.25;;
36575;SDS011;45700;50.930;5.168;2022-07-23T17:20:26;2.63;;;1.98;;
36575;SDS011;45700;50.930;5.168;2022-07-23T17:24:27;2.47;;;2.15;;
36575;SDS011;45700;50.930;5.168;2022-07-23T17:28:28;1.95;;;1.77;;
36575;SDS011;45700;50.930;5.168;2022-07-23T17:32:29;2.30;;;1.92;;
36575;SDS011;45700;50.930;5.168;2022-07-23T17:36:30;3.33;;;1.80;;
36575;SDS011;45700;50.930;5.168;2022-07-23T17:40:32;1.90;;;1.73;;
36575;SDS011;45700;50.930;5.168;2022-07-23T17:44:33;3.47;;;2.17;;
36575;SDS011;45700;50.930;5.168;2022-07-23T17:48:34;3.28;;;2.13;;
36575;SDS011;45700;50.930;5.168;2022-07-23T17:52:45;3.13;;;2.00;;
36575;SDS011;45700;50.930;5.168;2022-07-23T17:56:46;5.68;;;1.90;;
36575;SDS011;45700;50.930;5.168;2022-07-23T18:00:47;2.75;;;1.95;;
36575;SDS011;45700;50.930;5.168;2022-07-23T18:04:50;2.65;;;1.85;;
36575;SDS011;45700;50.930;5.168;2022-07-23T18:08:51;2.10;;;1.90;;
36575;SDS011;45700;50.930;5.168;2022-07-23T18:12:52;2.47;;;2.10;;
36575;SDS011;45700;50.930;5.168;2022-07-23T18:16:53;3.05;;;1.80;;
36575;SDS011;45700;50.930;5.168;2022-07-23T18:20:54;2.60;;;1.85;;
36575;SDS011;45700;50.930;5.168;2022-07-23T18:24:56;3.60;;;1.92;;
36575;SDS011;45700;50.930;5.168;2022-07-23T18:28:58;3.17;;;2.50;;
36575;SDS011;45700;50.930;5.168;2022-07-23T18:32:59;2.55;;;2.15;;
36575;SDS011;45700;50.930;5.168;2022-07-23T18:37:00;3.00;;;2.10;;
36575;SDS011;45700;50.930;5.168;2022-07-23T18:41:01;3.60;;;2.45;;
36575;SDS011;45700;50.930;5.168;2022-07-23T18:45:03;2.58;;;2.17;;
36575;SDS011;45700;50.930;5.168;2022-07-23T18:49:04;2.20;;;2.00;;
36575;SDS011;45700;50.930;5.168;2022-07-23T18:53:05;3.75;;;2.50;;
36575;SDS011;45700;50.930;5.168;2022-07-23T18:57:06;3.25;;;2.40;;
36575;SDS011;45700;50.930;5.168;2022-07-23T19:01:07;2.55;;;2.28;;
36575;SDS011;45700;50.930;5.168;2022-07-23T19:05:11;3.05;;;2.38;;
36575;SDS011;45700;50.930;5.168;2022-07-23T19:09:12;1.98;;;1.80;;
36575;SDS011;45700;50.930;5.168;2022-07-23T19:13:14;3.38;;;2.47;;
36575;SDS011;45700;50.930;5.168;2022-07-23T19:17:15;2.88;;;2.40;;
36575;SDS011;45700;50.930;5.168;2022-07-23T19:21:16;2.90;;;2.30;;
36575;SDS011;45700;50.930;5.168;2022-07-23T19:25:20;2.05;;;1.63;;
36575;SDS011;45700;50.930;5.168;2022-07-23T19:29:21;3.13;;;2.45;;
36575;SDS011;45700;50.930;5.168;2022-07-23T19:33:23;2.58;;;2.33;;
36575;SDS011;45700;50.930;5.168;2022-07-23T19:37:24;3.60;;;2.50;;
36575;SDS011;45700;50.930;5.168;2022-07-23T19:41:25;5.35;;;2.22;;
36575;SDS011;45700;50.930;5.168;2022-07-23T19:45:26;4.95;;;2.58;;
36575;SDS011;45700;50.930;5.168;2022-07-23T19:49:27;3.15;;;2.60;;
36575;SDS011;45700;50.930;5.168;2022-07-23T19:53:28;3.30;;;2.70;;
36575;SDS011;45700;50.930;5.168;2022-07-23T19:57:29;2.80;;;2.55;;
36575;SDS011;45700;50.930;5.168;2022-07-23T20:01:31;3.95;;;2.28;;
36575;SDS011;45700;50.930;5.168;2022-07-23T20:05:32;2.80;;;2.25;;
36575;SDS011;45700;50.930;5.168;2022-07-23T20:09:33;3.22;;;2.58;;
36575;SDS011;45700;50.930;5.168;2022-07-23T20:13:34;3.05;;;2.50;;
36575;SDS011;45700;50.930;5.168;2022-07-23T20:17:35;2.63;;;2.28;;
36575;SDS011;45700;50.930;5.168;2022-07-23T20:21:36;2.50;;;2.30;;
36575;SDS011;45700;50.930;5.168;2022-07-23T20:25:44;3.97;;;2.60;;
36575;SDS011;45700;50.930;5.168;2022-07-23T20:29:44;3.03;;;2.70;;
36575;SDS011;45700;50.930;5.168;2022-07-23T20:33:46;4.35;;;2.65;;
36575;SDS011;45700;50.930;5.168;2022-07-23T20:37:46;4.07;;;2.53;;
36575;SDS011;45700;50.930;5.168;2022-07-23T20:41:47;3.00;;;2.60;;
36575;SDS011;45700;50.930;5.168;2022-07-23T20:45:48;2.78;;;2.47;;
36575;SDS011;45700;50.930;5.168;2022-07-23T20:49:49;3.30;;;2.40;;
36575;SDS011;45700;50.930;5.168;2022-07-23T20:53:50;3.05;;;2.50;;
36575;SDS011;45700;50.930;5.168;2022-07-23T20:57:51;3.80;;;2.75;;
36575;SDS011;45700;50.930;5.168;2022-07-23T21:01:52;4.38;;;2.92;;
36575;SDS011;45700;50.930;5.168;2022-07-23T21:05:53;4.30;;;2.60;;
36575;SDS011;45700;50.930;5.168;2022-07-23T21:09:54;3.08;;;2.60;;
36575;SDS011;45700;50.930;5.168;2022-07-23T21:13:55;4.78;;;3.00;;
36575;SDS011;45700;50.930;5.168;2022-07-23T21:17:56;2.72;;;2.30;;
36575;SDS011;45700;50.930;5.168;2022-07-23T21:21:57;3.63;;;2.70;;
36575;SDS011;45700;50.930;5.168;2022-07-23T21:25:59;3.83;;;2.90;;
36575;SDS011;45700;50.930;5.168;2022-07-23T21:30:00;4.13;;;2.88;;
36575;SDS011;45700;50.930;5.168;2022-07-23T21:34:01;4.13;;;3.05;;
36575;SDS011;45700;50.930;5.168;2022-07-23T21:38:02;4.22;;;3.10;;
36575;SDS011;45700;50.930;5.168;2022-07-23T21:42:03;4.45;;;3.60;;
36575;SDS011;45700;50.930;5.168;2022-07-23T21:46:04;4.85;;;3.35;;
36575;SDS011;45700;50.930;5.168;2022-07-23T21:50:05;6.07;;;3.50;;
36575;SDS011;45700;50.930;5.168;2022-07-23T21:54:06;4.65;;;3.13;;
36575;SDS011;45700;50.930;5.168;2022-07-23T21:58:08;5.28;;;3.65;;
36575;SDS011;45700;50.930;5.168;2022-07-23T22:02:10;4.57;;;3.28;;
36575;SDS011;45700;50.930;5.168;2022-07-23T22:06:11;4.38;;;3.15;;
36575;SDS011;45700;50.930;5.168;2022-07-23T22:10:12;4.47;;;3.47;;
36575;SDS011;45700;50.930;5.168;2022-07-23T22:14:14;6.63;;;4.07;;
36575;SDS011;45700;50.930;5.168;2022-07-23T22:18:15;4.93;;;3.53;;
36575;SDS011;45700;50.930;5.168;2022-07-23T22:22:16;5.95;;;3.45;;
36575;SDS011;45700;50.930;5.168;2022-07-23T22:26:17;4.90;;;3.63;;
36575;SDS011;45700;50.930;5.168;2022-07-23T22:30:18;5.25;;;3.95;;
36575;SDS011;45700;50.930;5.168;2022-07-23T22:34:19;6.43;;;4.18;;
36575;SDS011;45700;50.930;5.168;2022-07-23T22:38:20;6.47;;;4.85;;
36575;SDS011;45700;50.930;5.168;2022-07-23T22:42:21;7.50;;;4.35;;
36575;SDS011;45700;50.930;5.168;2022-07-23T22:46:23;5.50;;;4.22;;
36575;SDS011;45700;50.930;5.168;2022-07-23T22:50:24;7.85;;;4.43;;
36575;SDS011;45700;50.930;5.168;2022-07-23T22:54:25;6.05;;;4.55;;
36575;SDS011;45700;50.930;5.168;2022-07-23T22:58:26;8.52;;;5.18;;
36575;SDS011;45700;50.930;5.168;2022-07-23T23:02:27;7.03;;;4.75;;
36575;SDS011;45700;50.930;5.168;2022-07-23T23:06:28;7.25;;;4.78;;
36575;SDS011;45700;50.930;5.168;2022-07-23T23:10:29;7.43;;;4.88;;
36575;SDS011;45700;50.930;5.168;2022-07-23T23:14:30;6.75;;;4.45;;
36575;SDS011;45700;50.930;5.168;2022-07-23T23:18:30;7.95;;;4.60;;
36575;SDS011;45700;50.930;5.168;2022-07-23T23:22:32;7.82;;;5.03;;
36575;SDS011;45700;50.930;5.168;2022-07-23T23:26:33;5.93;;;4.50;;
36575;SDS011;45700;50.930;5.168;2022-07-23T23:30:34;6.65;;;4.68;;
36575;SDS011;45700;50.930;5.168;2022-07-23T23:34:35;7.93;;;4.65;;
36575;SDS011;45700;50.930;5.168;2022-07-23T23:38:36;6.43;;;4.15;;
36575;SDS011;45700;50.930;5.168;2022-07-23T23:42:37;6.40;;;4.28;;
36575;SDS011;45700;50.930;5.168;2022-07-23T23:46:38;6.03;;;4.47;;
36575;SDS011;45700;50.930;5.168;2022-07-23T23:50:39;6.65;;;4.07;;
36575;SDS011;45700;50.930;5.168;2022-07-23T23:54:40;5.38;;;3.90;;
36575;SDS011;45700;50.930;5.168;2022-07-23T23:58:41;9.68;;;4.32;;
